Latest Weather Observations for Toowoomba

IDQ60801

Issued at 2:32 pm EST Monday 23 January 2017 (issued every 30 minutes, with the page automatically refreshed every 10 minutes)

About weather observations | Map of weather stations | Latest weather observations for QLD | Other Formats
Station Details ID: 041529 Name: TOOWOOMBA AIRPORT Lat: -27.54 Lon: 151.91 Height: 640.9 m
Data from the previous 72 hours. | See also: Recent months at Toowoomba
Date/Time
EST
Temp
°C
App
Temp
°C
Dew
Point
°C
Rel
Hum
%
Delta-T
°C
Wind Press
QNH
hPa
Press
MSL
hPa
Rain since
9am
mm
Dir  Spd
km/h
Gust
km/h
Spd
kts
Gust
kts
23/02:00pm 25.3 22.1 13.2 47 7.2 E 22 33 12 18 1018.2 1014.6 0.0
23/01:30pm 25.4 22.5 12.9 45 7.5 ENE 20 32 11 17 1018.4 1014.8 0.0
23/01:00pm 25.0 22.1 13.9 50 6.7 E 22 30 12 16 1018.7 1015.0 0.0
23/12:30pm 24.8 21.4 13.7 50 6.7 ENE 24 33 13 18 1018.9 1015.2 0.0
23/12:00pm 24.2 20.7 13.4 51 6.5 E 24 33 13 18 1019.1 1015.4 0.0
23/11:30am 23.2 19.8 13.7 55 5.7 E 24 39 13 21 1019.5 1015.9 0.0
23/11:00am 23.6 19.9 14.0 55 5.8 E 26 35 14 19 1019.5 1015.9 0.0
23/10:30am 23.2 19.5 13.9 56 5.6 ENE 26 41 14 22 1019.6 1016.0 0.0
23/10:00am 22.0 18.2 13.6 59 5.0 ENE 26 35 14 19 1020.1 1016.5 0.0
23/09:30am 21.3 17.5 13.7 62 4.5 ENE 26 35 14 19 1020.3 1016.6 0.0
23/09:00am 21.0 17.5 14.4 66 4.0 E 26 35 14 19 1020.3 1016.6 0.0
23/08:30am 20.9 16.0 13.8 64 4.2 E 32 46 17 25 1020.0 1016.4 0.0
23/08:00am 20.1 15.1 13.3 65 4.0 E 32 43 17 23 1019.7 1016.1 0.0
23/07:30am 19.5 14.5 13.4 68 3.6 E 32 43 17 23 1019.6 1016.0 0.0
23/07:00am 18.9 13.9 13.5 71 3.2 E 32 39 17 21 1019.5 1015.9 0.0
23/06:30am 18.0 14.5 14.5 80 2.1 E 26 35 14 19 1019.5 1015.9 0.0
23/06:00am 17.1 14.4 14.7 86 1.4 E 22 30 12 16 1019.2 1015.5 0.0
23/05:30am 16.6 13.3 15.1 91 0.9 E 26 33 14 18 1018.7 1015.0 0.0
23/05:00am 16.4 13.9 15.1 92 0.8 E 22 30 12 16 1018.3 1014.7 0.0
23/04:30am 16.6 14.2 15.3 92 0.8 E 22 28 12 15 1018.2 1014.6 0.0
23/04:00am 16.6 13.9 15.5 93 0.7 E 24 32 13 17 1018.0 1014.4 0.0
23/03:30am 16.7 13.9 15.4 92 0.8 E 24 30 13 16 1018.0 1014.4 0.0
23/03:00am 16.9 13.7 15.4 91 0.9 E 26 35 14 19 1017.7 1014.0 0.0
23/02:30am 16.9 13.0 15.6 92 0.8 E 30 39 16 21 1017.7 1014.0 0.0
23/02:00am 17.1 14.0 15.6 91 0.9 E 26 35 14 19 1017.8 1014.1 0.0
23/01:30am 17.3 13.4 15.6 90 1.0 E 30 39 16 21 1018.0 1014.4 0.0
23/01:00am 17.6 13.8 15.8 89 1.1 E 30 39 16 21 1018.1 1014.5 0.0
23/12:30am 17.8 14.7 15.6 87 1.3 E 26 37 14 20 1018.6 1014.9 0.0
23/12:00am 17.8 14.7 15.6 87 1.3 E 26 37 14 20 1018.9 1015.2 0.0
 
Date/Time
EST
Temp
°C
App
Temp
°C
Dew
Point
°C
Rel
Hum
%
Delta-T
°C
Wind Press
QNH
hPa
Press
MSL
hPa
Rain since
9am
mm
Dir  Spd
km/h
Gust
km/h
Spd
kts
Gust
kts
22/11:30pm 17.9 15.5 15.5 86 1.5 E 22 33 12 18 1019.1 1015.4 0.0
22/11:00pm 18.1 15.4 15.7 86 1.5 E 24 37 13 20 1019.1 1015.4 0.0
22/10:30pm 18.5 15.1 15.9 85 1.6 E 28 39 15 21 1019.1 1015.4 0.0
22/10:00pm 18.9 15.6 16.1 84 1.7 E 28 35 15 19 1019.3 1015.6 0.0
22/09:30pm 19.0 16.5 16.2 84 1.7 ENE 24 35 13 19 1019.4 1015.8 0.0
22/09:00pm 19.3 16.5 16.3 83 1.8 E 26 33 14 18 1019.4 1015.8 0.0
22/08:30pm 19.4 17.0 16.4 83 1.9 E 24 30 13 16 1019.1 1015.4 0.0
22/08:00pm 19.9 17.8 16.2 79 2.3 E 22 28 12 15 1019.2 1015.5 0.0
22/07:30pm 20.2 18.6 16.4 79 2.4 E 20 28 11 15 1019.1 1015.4 0.0
22/07:00pm 20.7 18.9 16.9 79 2.4 E 22 28 12 15 1018.7 1015.0 0.0
22/06:30pm 21.6 19.7 16.6 73 3.1 E 22 26 12 14 1018.3 1014.7 0.0
22/06:00pm 22.4 19.5 16.0 67 4.0 E 26 32 14 17 1018.0 1014.4 0.0
22/05:30pm 22.9 20.0 16.0 65 4.3 E 26 35 14 19 1017.7 1014.0 0.0
22/05:00pm 23.7 21.0 16.7 65 4.4 E 26 33 14 18 1017.4 1013.7 0.0
22/04:30pm 23.7 20.5 16.2 63 4.7 E 28 33 15 18 1017.4 1013.7 0.0
22/04:00pm 24.0 20.7 16.0 61 5.0 E 28 35 15 19 1017.3 1013.6 0.0
22/03:30pm 24.3 21.5 16.3 61 5.0 E 26 35 14 19 1017.7 1014.0 0.0
22/03:00pm 24.3 21.6 16.6 62 4.8 E 26 35 14 19 1017.9 1014.2 0.0
22/02:30pm 24.5 21.6 17.0 63 4.8 E 28 37 15 20 1018.0 1014.4 0.0
22/02:00pm 24.5 21.2 17.0 63 4.8 E 30 41 16 22 1018.2 1014.6 0.0
22/01:30pm 24.5 21.3 17.2 63 4.6 E 30 39 16 21 1018.2 1014.6 0.0
22/01:00pm 23.9 20.3 17.2 66 4.3 E 32 43 17 23 1018.4 1014.8 0.0
22/12:30pm 23.7 20.0 17.4 68 4.0 E 33 43 18 23 1018.7 1015.0 0.0
22/12:00pm 23.6 19.7 16.9 66 4.2 E 33 43 18 23 1018.9 1015.2 0.0
22/11:30am 23.0 18.8 17.2 70 3.7 E 35 46 19 25 1019.2 1015.5 0.0
22/11:00am 22.9 18.9 17.6 72 3.4 E 35 46 19 25 1019.4 1015.8 0.0
22/10:30am 21.6 17.6 16.8 74 3.0 E 33 44 18 24 1019.4 1015.8 0.0
22/10:25am 21.8 17.6 17.2 75 2.9 E 35 48 19 26 1019.4 1015.8 0.0
22/10:00am 20.7 16.9 17.3 81 2.1 E 33 41 18 22 1019.4 1015.8 0.0
22/09:30am 20.7 16.5 17.1 80 2.3 E 35 44 19 24 1019.3 1015.6 0.0
22/09:00am 19.9 16.3 18.6 92 0.8 E 35 46 19 25 1019.2 1015.5 6.4
22/08:30am 19.5 15.8 18.3 93 0.8 E 35 44 19 24 1019.0 1015.3 6.4
22/08:00am 18.4 14.6 18.1 98 0.2 E 35 44 19 24 1019.1 1015.4 6.4
22/07:46am 18.2 14.4 18.0 99 0.1 E 35 46 19 25 1019.0 1015.3 6.4
22/07:30am 18.1 13.8 17.9 99 0.1 E 37 46 20 25 1018.9 1015.2 6.4
22/07:00am 18.0 14.1 17.8 99 0.1 E 35 48 19 26 1018.7 1015.0 6.4
22/06:30am 18.0 14.1 17.8 99 0.1 E 35 50 19 27 1018.3 1014.7 6.2
22/06:00am 18.1 13.5 17.9 99 0.1 E 39 48 21 26 1017.8 1014.1 6.0
22/05:47am 18.0 14.5 17.8 99 0.1 E 33 44 18 24 1017.6 1013.9 6.0
22/05:46am 18.0 14.5 17.8 99 0.1 E 33 44 18 24 1017.6 1013.9 6.0
22/05:30am 18.0 14.1 17.8 99 0.1 E 35 48 19 26 1017.2 1013.5 6.0
22/05:00am 18.0 14.1 17.8 99 0.1 E 35 44 19 24 1016.6 1013.0 6.0
22/04:30am 18.3 14.9 18.1 99 0.1 E 33 43 18 23 1016.1 1012.4 6.0
22/04:00am 18.4 15.2 18.2 99 0.1 E 32 43 17 23 1015.9 1012.2 5.8
22/03:30am 18.5 14.8 18.3 99 0.1 E 35 43 19 23 1015.7 1012.0 5.8
22/03:00am 18.5 14.8 18.3 99 0.1 E 35 46 19 25 1015.9 1012.2 5.6
22/02:47am 18.6 14.9 18.4 99 0.1 E 35 46 19 25 1016.0 1012.3 5.6
22/02:30am 18.5 14.8 18.3 99 0.1 E 35 43 19 23 1015.8 1012.1 5.6
22/02:03am 18.4 14.6 18.2 99 0.1 E 35 48 19 26 1015.9 1012.2 5.6
22/02:00am 18.5 14.8 18.3 99 0.1 E 35 48 19 26 1015.9 1012.2 5.6
22/01:30am 18.5 14.4 18.3 99 0.1 E 37 46 20 25 1015.8 1012.1 5.6
22/01:00am 18.5 14.0 18.3 99 0.1 E 39 46 21 25 1015.9 1012.2 5.6
22/12:30am 18.4 13.9 18.2 99 0.1 E 39 54 21 29 1015.9 1012.2 5.4
22/12:00am 18.6 13.4 18.4 99 0.1 E 43 54 23 29 1016.1 1012.4 5.2
 
Date/Time
EST
Temp
°C
App
Temp
°C
Dew
Point
°C
Rel
Hum
%
Delta-T
°C
Wind Press
QNH
hPa
Press
MSL
hPa
Rain since
9am
mm
Dir  Spd
km/h
Gust
km/h
Spd
kts
Gust
kts
21/11:30pm 18.9 14.2 18.7 99 0.1 E 41 57 22 31 1016.1 1012.4 5.0
21/11:28pm 19.0 14.8 18.8 99 0.1 E 39 57 21 31 1016.1 1012.4 5.0
21/11:00pm 19.1 14.1 18.9 99 0.1 E 43 54 23 29 1016.2 1012.5 4.8
21/10:30pm 19.3 15.6 19.1 99 0.1 E 37 52 20 28 1016.3 1012.6 4.4
21/10:00pm 19.5 15.9 19.3 99 0.1 E 37 50 20 27 1016.4 1012.7 3.8
21/09:30pm 19.5 15.1 19.3 99 0.1 E 41 54 22 29 1016.2 1012.5 3.4
21/09:00pm 19.5 15.9 19.3 99 0.1 E 37 46 20 25 1016.2 1012.5 3.0
21/08:30pm 19.6 16.0 19.4 99 0.1 E 37 48 20 26 1015.7 1012.0 2.8
21/08:00pm 19.9 16.1 19.7 99 0.1 E 39 54 21 29 1015.3 1011.6 2.8
21/07:30pm 20.2 17.3 20.0 99 0.1 E 35 46 19 25 1014.9 1011.2 2.8
21/07:08pm 20.3 16.7 20.1 99 0.1 E 39 54 21 29 1014.5 1010.8 2.8
21/07:06pm 20.3 16.7 20.1 99 0.1 E 39 54 21 29 1014.4 1010.7 2.8
21/07:00pm 20.4 16.8 20.2 99 0.1 E 39 54 21 29 1014.2 1010.5 2.8
21/06:30pm 20.7 17.6 20.5 99 0.1 E 37 48 20 26 1013.9 1010.2 2.8
21/06:00pm 20.9 17.2 20.7 99 0.1 ENE 41 57 22 31 1012.4 1008.7 2.6
21/05:55pm 21.0 18.1 20.8 99 0.1 E 37 50 20 27 1012.7 1009.0 2.0
21/05:38pm 21.5 20.2 21.3 99 0.1 ESE 30 39 16 21 1013.3 1009.6 1.6
21/05:30pm 21.5 20.2 21.3 99 0.1 E 30 41 16 22 1013.0 1009.3 1.6
21/05:07pm 22.3 20.7 21.5 95 0.5 ENE 32 43 17 23 1012.2 1008.4 1.6
21/05:00pm 21.9 20.4 21.7 99 0.1 E 32 39 17 21 1012.5 1008.8 1.6
21/04:55pm 21.7 20.1 21.5 99 0.1 E 32 43 17 23 1012.3 1008.5 1.6
21/04:40pm 22.0 19.4 21.5 97 0.3 E 37 46 20 25 1012.5 1008.8 1.6
21/04:30pm 22.1 20.0 21.6 97 0.3 E 35 52 19 28 1011.2 1007.5 1.6
21/04:11pm 23.1 22.1 22.6 97 0.3 E 32 39 17 21 1011.6 1007.9 1.6
21/04:00pm 23.7 23.7 23.0 96 0.5 E 28 35 15 19 1011.4 1007.7 1.6
21/03:45pm 24.2 24.3 23.3 95 0.6 E 28 37 15 20 1011.1 1007.4 1.4
21/03:38pm 24.4 25.0 22.8 91 1.1 E 24 37 13 20 1011.3 1007.6 1.4
21/03:30pm 25.1 28.6 23.5 91 1.1 NNE 11 15 6 8 1011.2 1007.5 1.4
21/03:26pm 25.0 28.3 23.8 93 0.8 NNE 13 24 7 13 1011.1 1007.4 1.4
21/03:07pm 25.4 27.9 23.1 87 1.6 N 15 19 8 10 1011.0 1007.3 1.4
21/03:00pm 26.0 27.4 22.9 83 2.2 N 20 26 11 14 1010.9 1007.1 0.2
21/02:30pm 29.1 31.0 20.5 59 5.8 S 11 13 6 7 1011.0 1007.3 0.2
21/02:00pm 27.9 27.8 19.9 61 5.4 S 20 28 11 15 1011.1 1007.4 0.2
21/01:30pm 30.9 31.1 20.2 53 7.2 W 19 28 10 15 1011.0 1007.3 0.2
21/01:00pm 30.8 31.5 20.4 54 7.1 W 17 24 9 13 1011.3 1007.6 0.2
21/12:30pm 29.7 29.8 20.3 57 6.4 WNW 20 26 11 14 1011.5 1007.8 0.2
21/12:00pm 29.3 29.1 20.5 59 6.0 WNW 22 28 12 15 1011.8 1008.1 0.0
21/11:30am 28.6 30.5 22.1 68 4.5 NW 15 26 8 14 1012.1 1008.3 0.0
21/11:00am 29.0 31.1 21.7 64 5.0 WNW 13 19 7 10 1012.3 1008.5 0.0
21/10:30am 27.8 28.9 21.3 67 4.4 WSW 17 24 9 13 1012.6 1008.9 0.0
21/10:00am 26.7 28.1 21.9 75 3.3 W 17 24 9 13 1012.7 1009.0 0.0
21/09:56am 26.6 27.7 22.0 76 3.2 W 19 24 10 13 1012.7 1009.0 0.0
21/09:30am 26.4 27.9 22.0 77 3.0 NW 17 22 9 12 1012.5 1008.8 0.0
21/09:00am 25.9 27.5 22.2 80 2.5 WNW 17 22 9 12 1012.3 1008.5 2.2
21/08:30am 25.7 26.7 22.2 81 2.4 W 20 28 11 15 1012.2 1008.4 2.2
21/08:29am 25.2 25.8 21.3 79 2.6 W 20 28 11 15 1012.2 1008.4 2.2
21/08:00am 24.9 26.3 21.8 83 2.1 WNW 17 22 9 12 1011.7 1008.0 2.2
21/07:30am 24.2 25.4 21.5 85 1.8 WNW 17 20 9 11 1011.6 1007.9 2.2
21/07:00am 24.1 25.3 21.4 85 1.8 W 17 24 9 13 1011.7 1008.0 2.2
21/06:30am 23.5 25.9 21.6 89 1.3 WNW 11 15 6 8 1011.4 1007.7 2.2
21/06:00am 22.7 25.4 21.3 92 0.9 WNW 9 13 5 7 1011.2 1007.5 2.2
21/05:30am 22.5 25.0 21.1 92 0.9 WNW 9 13 5 7 1010.7 1006.9 2.2
21/05:00am 22.7 24.9 21.2 91 1.0 W 11 15 6 8 1010.4 1006.6 2.2
21/04:30am 22.8 24.6 21.1 90 1.1 WSW 13 17 7 9 1010.1 1006.4 2.2
21/04:00am 22.9 24.4 21.2 90 1.1 WSW 15 24 8 13 1010.1 1006.4 2.2
21/03:30am 22.8 24.3 21.3 91 1.0 W 15 19 8 10 1009.7 1006.0 2.2
21/03:00am 23.0 24.3 20.9 88 1.4 WNW 15 19 8 10 1009.4 1005.6 2.2
21/02:30am 23.1 24.7 20.8 87 1.5 WNW 13 19 7 10 1009.2 1005.4 2.2
21/02:00am 22.8 24.0 20.7 88 1.4 WNW 15 17 8 9 1009.1 1005.3 2.2
21/01:30am 23.1 23.8 20.4 85 1.8 WNW 17 22 9 12 1009.1 1005.3 2.2
21/01:00am 23.2 24.2 20.3 84 1.9 WNW 15 19 8 10 1009.0 1005.2 2.2
21/12:30am 23.0 24.6 20.7 87 1.5 WNW 13 17 7 9 1009.1 1005.3 2.2
21/12:00am 23.0 23.3 20.5 86 1.7 WNW 19 28 10 15 1009.4 1005.6 2.2
 
Date/Time
EST
Temp
°C
App
Temp
°C
Dew
Point
°C
Rel
Hum
%
Delta-T
°C
Wind Press
QNH
hPa
Press
MSL
hPa
Rain since
9am
mm
Dir  Spd
km/h
Gust
km/h
Spd
kts
Gust
kts
20/11:30pm 24.9 26.3 20.4 76 3.0 W 13 20 7 11 1009.9 1006.2 1.6
20/11:00pm 24.7 27.3 21.2 81 2.4 WSW 9 13 5 7 1010.3 1006.5 1.6
20/10:30pm 25.2 26.4 20.7 76 3.0 WSW 15 20 8 11 1010.7 1006.9 1.6
20/10:00pm 24.9 27.5 21.2 80 2.5 W 9 11 5 6 1010.7 1006.9 1.6
20/09:30pm 25.0 27.3 20.7 77 2.9 W 9 13 5 7 1010.6 1006.8 1.6
20/09:00pm 25.3 27.2 20.5 75 3.2 SW 11 17 6 9 1009.9 1006.2 1.6
20/08:30pm 25.1 26.4 20.8 77 2.9 SSW 15 19 8 10 1009.5 1005.8 1.6
20/08:00pm 25.0 25.9 20.9 78 2.8 SSW 17 20 9 11 1009.4 1005.6 1.6
20/07:30pm 24.5 25.3 21.4 83 2.1 SSW 19 26 10 14 1009.4 1005.6 1.6
20/07:22pm 24.3 25.0 21.6 85 1.8 SSW 20 28 11 15 1009.4 1005.6 1.6
20/07:00pm 24.5 21.2 20.8 80 2.5 SSW 39 50 21 27 1009.7 1006.0 0.4
20/06:56pm 24.7 21.6 20.4 77 2.9 SW 37 50 20 27 1009.5 1005.8 0.2
20/06:45pm 28.9 27.8 17.7 50 7.3 WSW 20 46 11 25 1009.1 1005.3 0.0
20/06:30pm 31.9 30.5 16.6 39 9.9 NW 19 24 10 13 1008.4 1004.7 0.0
20/06:00pm 32.0 30.8 17.1 41 9.7 WNW 19 28 10 15 1008.2 1004.5 0.0
20/05:30pm 32.7 30.0 16.5 37 10.5 WNW 26 41 14 22 1007.8 1004.0 0.0
20/05:00pm 32.7 29.6 16.5 37 10.5 NW 28 41 15 22 1007.5 1003.7 0.0
20/04:30pm 33.7 30.2 17.4 37 10.7 WNW 32 43 17 23 1007.2 1003.4 0.0
20/04:19pm 33.0 30.2 17.2 39 10.3 NW 28 46 15 25 1007.1 1003.3 0.0
20/04:00pm 33.3 29.8 17.5 39 10.4 NW 32 46 17 25 1007.3 1003.5 0.0
20/03:43pm 33.2 29.5 17.0 38 10.6 NW 32 50 17 27 1007.5 1003.7 0.0
20/03:30pm 32.7 29.1 17.3 39 10.1 WNW 32 48 17 26 1007.6 1003.8 0.0
20/03:00pm 32.4 30.4 18.2 42 9.4 WNW 26 41 14 22 1008.0 1004.2 0.0
20/02:44pm 32.0 29.8 18.6 45 8.9 NW 28 46 15 25 1008.2 1004.5 0.0

Other Formats:

Comma delimited format used in spreadsheet applications
http://www.bom.gov.au/fwo/IDQ60801/IDQ60801.95551.axf

JavaScript Object Notation format (JSON) in row-major order
http://www.bom.gov.au/fwo/IDQ60801/IDQ60801.95551.json